sensor_id;sensor_type;location;lat;lon;timestamp;temperature;humidity
29479;DHT22;16437;41.836;23.480;2022-09-13T00:00:52;22.40;43.60
29479;DHT22;16437;41.836;23.480;2022-09-13T00:06:19;22.40;43.60
29479;DHT22;16437;41.836;23.480;2022-09-13T00:11:45;22.40;43.70
29479;DHT22;16437;41.836;23.480;2022-09-13T00:17:12;22.40;43.80
29479;DHT22;16437;41.836;23.480;2022-09-13T00:22:38;22.40;43.80
29479;DHT22;16437;41.836;23.480;2022-09-13T00:28:05;22.40;43.90
29479;DHT22;16437;41.836;23.480;2022-09-13T00:33:32;22.50;43.90
29479;DHT22;16437;41.836;23.480;2022-09-13T00:38:59;22.40;44.00
29479;DHT22;16437;41.836;23.480;2022-09-13T00:50:33;22.40;43.90
29479;DHT22;16437;41.836;23.480;2022-09-13T00:56:02;22.40;43.80
29479;DHT22;16437;41.836;23.480;2022-09-13T01:01:32;22.30;43.70
29479;DHT22;16437;41.836;23.480;2022-09-13T01:07:01;22.40;43.70
29479;DHT22;16437;41.836;23.480;2022-09-13T01:12:47;22.40;43.70
29479;DHT22;16437;41.836;23.480;2022-09-13T01:18:11;22.40;43.80
29479;DHT22;16437;41.836;23.480;2022-09-13T01:24:19;22.30;43.90
29479;DHT22;16437;41.836;23.480;2022-09-13T01:35:44;22.30;44.00
29479;DHT22;16437;41.836;23.480;2022-09-13T01:46:59;22.30;44.00
29479;DHT22;16437;41.836;23.480;2022-09-13T01:52:26;22.30;43.90
29479;DHT22;16437;41.836;23.480;2022-09-13T01:57:59;22.30;44.00
29479;DHT22;16437;41.836;23.480;2022-09-13T02:03:41;22.20;44.00
29479;DHT22;16437;41.836;23.480;2022-09-13T02:09:10;22.30;44.00
29479;DHT22;16437;41.836;23.480;2022-09-13T02:14:39;22.30;44.00
29479;DHT22;16437;41.836;23.480;2022-09-13T02:20:09;22.30;44.00
29479;DHT22;16437;41.836;23.480;2022-09-13T02:25:37;22.30;44.10
29479;DHT22;16437;41.836;23.480;2022-09-13T02:31:06;22.30;44.10
29479;DHT22;16437;41.836;23.480;2022-09-13T02:36:35;22.30;44.10
29479;DHT22;16437;41.836;23.480;2022-09-13T02:47:52;22.30;44.30
29479;DHT22;16437;41.836;23.480;2022-09-13T02:53:25;22.20;44.30
29479;DHT22;16437;41.836;23.480;2022-09-13T02:59:08;22.20;44.40
29479;DHT22;16437;41.836;23.480;2022-09-13T03:04:33;22.20;44.40
29479;DHT22;16437;41.836;23.480;2022-09-13T03:10:07;22.20;44.50
29479;DHT22;16437;41.836;23.480;2022-09-13T03:15:44;22.20;44.50
29479;DHT22;16437;41.836;23.480;2022-09-13T03:27:18;22.20;44.30
29479;DHT22;16437;41.836;23.480;2022-09-13T03:32:50;22.20;44.30
29479;DHT22;16437;41.836;23.480;2022-09-13T03:38:20;22.20;44.30
29479;DHT22;16437;41.836;23.480;2022-09-13T03:43:48;22.20;44.30
29479;DHT22;16437;41.836;23.480;2022-09-13T03:49:17;22.10;44.40
29479;DHT22;16437;41.836;23.480;2022-09-13T03:54:45;22.20;44.60
29479;DHT22;16437;41.836;23.480;2022-09-13T04:00:12;22.20;44.60
29479;DHT22;16437;41.836;23.480;2022-09-13T04:05:39;22.10;44.60
29479;DHT22;16437;41.836;23.480;2022-09-13T04:11:06;22.20;44.60
29479;DHT22;16437;41.836;23.480;2022-09-13T04:16:34;22.10;44.60
29479;DHT22;16437;41.836;23.480;2022-09-13T04:22:00;22.10;44.60
29479;DHT22;16437;41.836;23.480;2022-09-13T04:27:27;22.10;44.60
29479;DHT22;16437;41.836;23.480;2022-09-13T04:32:53;22.10;44.50
29479;DHT22;16437;41.836;23.480;2022-09-13T04:38:24;22.10;44.50
29479;DHT22;16437;41.836;23.480;2022-09-13T04:43:51;22.10;44.50
29479;DHT22;16437;41.836;23.480;2022-09-13T04:49:18;22.10;44.50
29479;DHT22;16437;41.836;23.480;2022-09-13T04:54:46;22.10;44.50
29479;DHT22;16437;41.836;23.480;2022-09-13T05:00:13;22.10;44.50
29479;DHT22;16437;41.836;23.480;2022-09-13T05:05:39;22.10;44.50
29479;DHT22;16437;41.836;23.480;2022-09-13T05:11:06;22.10;44.60
29479;DHT22;16437;41.836;23.480;2022-09-13T05:16:33;22.10;44.60
29479;DHT22;16437;41.836;23.480;2022-09-13T05:22:00;22.10;44.60
29479;DHT22;16437;41.836;23.480;2022-09-13T05:27:26;22.10;44.70
29479;DHT22;16437;41.836;23.480;2022-09-13T05:32:53;22.10;44.80
29479;DHT22;16437;41.836;23.480;2022-09-13T05:38:20;22.10;44.90
29479;DHT22;16437;41.836;23.480;2022-09-13T05:43:47;22.00;45.10
29479;DHT22;16437;41.836;23.480;2022-09-13T05:49:13;22.10;45.20
29479;DHT22;16437;41.836;23.480;2022-09-13T05:54:40;22.10;45.30
29479;DHT22;16437;41.836;23.480;2022-09-13T06:00:08;22.10;45.40
29479;DHT22;16437;41.836;23.480;2022-09-13T06:05:34;22.10;45.50
29479;DHT22;16437;41.836;23.480;2022-09-13T06:11:06;22.00;45.60
29479;DHT22;16437;41.836;23.480;2022-09-13T06:16:33;22.00;45.70
29479;DHT22;16437;41.836;23.480;2022-09-13T06:22:00;22.00;45.70
29479;DHT22;16437;41.836;23.480;2022-09-13T06:27:28;22.10;45.80
29479;DHT22;16437;41.836;23.480;2022-09-13T06:32:59;22.00;45.90
29479;DHT22;16437;41.836;23.480;2022-09-13T06:38:25;22.10;46.00
29479;DHT22;16437;41.836;23.480;2022-09-13T06:43:53;22.10;46.10
29479;DHT22;16437;41.836;23.480;2022-09-13T06:49:20;22.10;46.20
29479;DHT22;16437;41.836;23.480;2022-09-13T06:54:47;22.10;46.30
29479;DHT22;16437;41.836;23.480;2022-09-13T07:00:14;22.10;46.30
29479;DHT22;16437;41.836;23.480;2022-09-13T07:05:40;22.10;46.30
29479;DHT22;16437;41.836;23.480;2022-09-13T07:11:07;22.10;46.30
29479;DHT22;16437;41.836;23.480;2022-09-13T07:16:36;22.00;46.30
29479;DHT22;16437;41.836;23.480;2022-09-13T07:22:03;22.00;46.30
29479;DHT22;16437;41.836;23.480;2022-09-13T07:27:29;22.00;46.50
29479;DHT22;16437;41.836;23.480;2022-09-13T07:32:55;22.10;46.50
29479;DHT22;16437;41.836;23.480;2022-09-13T07:38:22;22.00;46.60
29479;DHT22;16437;41.836;23.480;2022-09-13T07:43:48;22.00;46.70
29479;DHT22;16437;41.836;23.480;2022-09-13T07:49:17;22.00;46.70
29479;DHT22;16437;41.836;23.480;2022-09-13T07:54:44;22.00;46.80
29479;DHT22;16437;41.836;23.480;2022-09-13T08:00:12;22.00;46.60
29479;DHT22;16437;41.836;23.480;2022-09-13T08:05:40;22.00;46.50
29479;DHT22;16437;41.836;23.480;2022-09-13T08:11:07;22.00;46.50
29479;DHT22;16437;41.836;23.480;2022-09-13T08:16:33;22.00;46.40
29479;DHT22;16437;41.836;23.480;2022-09-13T08:22:00;22.00;46.30
29479;DHT22;16437;41.836;23.480;2022-09-13T08:27:27;21.90;46.20
29479;DHT22;16437;41.836;23.480;2022-09-13T08:32:53;21.90;46.20
29479;DHT22;16437;41.836;23.480;2022-09-13T08:38:20;21.80;46.20
29479;DHT22;16437;41.836;23.480;2022-09-13T08:49:29;21.80;46.00
29479;DHT22;16437;41.836;23.480;2022-09-13T08:54:56;21.70;46.00
29479;DHT22;16437;41.836;23.480;2022-09-13T09:00:30;21.60;46.00
29479;DHT22;16437;41.836;23.480;2022-09-13T09:05:55;21.60;46.00
29479;DHT22;16437;41.836;23.480;2022-09-13T09:17:03;21.50;46.10
29479;DHT22;16437;41.836;23.480;2022-09-13T09:22:32;21.50;46.30
29479;DHT22;16437;41.836;23.480;2022-09-13T09:28:01;21.50;46.40
29479;DHT22;16437;41.836;23.480;2022-09-13T09:33:54;21.50;46.50
29479;DHT22;16437;41.836;23.480;2022-09-13T09:39:19;21.50;46.60
29479;DHT22;16437;41.836;23.480;2022-09-13T09:44:55;21.50;46.70
29479;DHT22;16437;41.836;23.480;2022-09-13T09:50:26;21.50;46.80
29479;DHT22;16437;41.836;23.480;2022-09-13T10:01:42;21.40;46.70
29479;DHT22;16437;41.836;23.480;2022-09-13T10:12:52;21.40;46.80
29479;DHT22;16437;41.836;23.480;2022-09-13T10:18:21;21.40;46.80
29479;DHT22;16437;41.836;23.480;2022-09-13T10:23:49;21.40;46.70
29479;DHT22;16437;41.836;23.480;2022-09-13T10:29:16;21.50;46.80
29479;DHT22;16437;41.836;23.480;2022-09-13T10:34:44;21.50;46.90
29479;DHT22;16437;41.836;23.480;2022-09-13T10:40:28;21.50;46.90
29479;DHT22;16437;41.836;23.480;2022-09-13T10:45:58;21.60;46.80
29479;DHT22;16437;41.836;23.480;2022-09-13T10:51:29;21.60;46.90
29479;DHT22;16437;41.836;23.480;2022-09-13T10:56:55;21.60;46.90
29479;DHT22;16437;41.836;23.480;2022-09-13T11:08:04;21.70;46.90
29479;DHT22;16437;41.836;23.480;2022-09-13T11:13:33;21.70;46.90
29479;DHT22;16437;41.836;23.480;2022-09-13T11:30:22;21.90;46.80
29479;DHT22;16437;41.836;23.480;2022-09-13T11:36:09;21.90;46.70
29479;DHT22;16437;41.836;23.480;2022-09-13T11:47:26;21.90;46.40
29479;DHT22;16437;41.836;23.480;2022-09-13T11:53:11;22.00;46.30
29479;DHT22;16437;41.836;23.480;2022-09-13T11:58:36;22.10;46.20
29479;DHT22;16437;41.836;23.480;2022-09-13T12:04:16;22.10;46.20
29479;DHT22;16437;41.836;23.480;2022-09-13T12:09:44;22.20;46.20
29479;DHT22;16437;41.836;23.480;2022-09-13T12:15:22;22.20;46.20
29479;DHT22;16437;41.836;23.480;2022-09-13T12:20:57;22.30;46.20
29479;DHT22;16437;41.836;23.480;2022-09-13T12:26:38;22.40;46.20
29479;DHT22;16437;41.836;23.480;2022-09-13T12:32:06;22.40;46.10
29479;DHT22;16437;41.836;23.480;2022-09-13T12:43:48;22.60;45.90
29479;DHT22;16437;41.836;23.480;2022-09-13T12:49:34;22.70;45.80
29479;DHT22;16437;41.836;23.480;2022-09-13T12:55:28;22.70;45.60
29479;DHT22;16437;41.836;23.480;2022-09-13T13:01:08;22.80;45.50
29479;DHT22;16437;41.836;23.480;2022-09-13T13:06:33;22.90;45.30
29479;DHT22;16437;41.836;23.480;2022-09-13T13:12:02;23.00;45.10
29479;DHT22;16437;41.836;23.480;2022-09-13T13:17:51;23.10;45.00
29479;DHT22;16437;41.836;23.480;2022-09-13T13:29:31;23.30;44.70
29479;DHT22;16437;41.836;23.480;2022-09-13T13:45:28;23.50;44.40
29479;DHT22;16437;41.836;23.480;2022-09-13T13:51:13;23.60;44.20
29479;DHT22;16437;41.836;23.480;2022-09-13T13:56:46;23.60;44.00
29479;DHT22;16437;41.836;23.480;2022-09-13T14:02:15;23.70;43.90
29479;DHT22;16437;41.836;23.480;2022-09-13T14:13:57;23.90;43.50
29479;DHT22;16437;41.836;23.480;2022-09-13T14:19:32;24.00;43.30
29479;DHT22;16437;41.836;23.480;2022-09-13T14:30:47;24.20;42.90
29479;DHT22;16437;41.836;23.480;2022-09-13T14:36:20;24.20;42.60
29479;DHT22;16437;41.836;23.480;2022-09-13T14:41:47;24.30;42.30
29479;DHT22;16437;41.836;23.480;2022-09-13T14:47:26;24.30;42.00
29479;DHT22;16437;41.836;23.480;2022-09-13T14:53:04;24.40;41.70
29479;DHT22;16437;41.836;23.480;2022-09-13T14:58:36;24.40;41.40
29479;DHT22;16437;41.836;23.480;2022-09-13T15:04:02;24.40;41.10
29479;DHT22;16437;41.836;23.480;2022-09-13T15:09:29;24.40;40.90
29479;DHT22;16437;41.836;23.480;2022-09-13T15:21:04;24.40;40.60
29479;DHT22;16437;41.836;23.480;2022-09-13T15:26:27;24.50;40.50
29479;DHT22;16437;41.836;23.480;2022-09-13T15:31:58;24.40;40.50
29479;DHT22;16437;41.836;23.480;2022-09-13T15:37:32;24.40;40.50
29479;DHT22;16437;41.836;23.480;2022-09-13T15:42:58;24.40;40.40
29479;DHT22;16437;41.836;23.480;2022-09-13T15:48:34;24.30;40.40
29479;DHT22;16437;41.836;23.480;2022-09-13T15:53:57;24.30;40.40
29479;DHT22;16437;41.836;23.480;2022-09-13T15:59:23;24.30;40.30
29479;DHT22;16437;41.836;23.480;2022-09-13T16:04:50;24.20;40.20
29479;DHT22;16437;41.836;23.480;2022-09-13T16:10:19;24.10;40.00
29479;DHT22;16437;41.836;23.480;2022-09-13T16:15:46;24.00;39.80
29479;DHT22;16437;41.836;23.480;2022-09-13T16:21:12;23.90;39.60
29479;DHT22;16437;41.836;23.480;2022-09-13T16:26:40;23.80;39.40
29479;DHT22;16437;41.836;23.480;2022-09-13T16:32:06;23.70;39.30
29479;DHT22;16437;41.836;23.480;2022-09-13T16:37:33;23.60;39.10
29479;DHT22;16437;41.836;23.480;2022-09-13T16:42:59;23.60;39.00
29479;DHT22;16437;41.836;23.480;2022-09-13T16:48:27;23.50;39.00
29479;DHT22;16437;41.836;23.480;2022-09-13T16:53:54;23.40;38.90
29479;DHT22;16437;41.836;23.480;2022-09-13T16:59:20;23.40;38.90
29479;DHT22;16437;41.836;23.480;2022-09-13T17:04:47;23.30;38.90
29479;DHT22;16437;41.836;23.480;2022-09-13T17:10:14;23.20;39.00
29479;DHT22;16437;41.836;23.480;2022-09-13T17:15:40;23.10;39.10
29479;DHT22;16437;41.836;23.480;2022-09-13T17:21:07;23.10;39.00
29479;DHT22;16437;41.836;23.480;2022-09-13T17:26:33;23.10;39.00
29479;DHT22;16437;41.836;23.480;2022-09-13T17:32:02;23.10;38.90
29479;DHT22;16437;41.836;23.480;2022-09-13T17:37:30;23.10;38.90
29479;DHT22;16437;41.836;23.480;2022-09-13T17:42:56;23.20;38.70
29479;DHT22;16437;41.836;23.480;2022-09-13T17:48:23;23.20;38.50
29479;DHT22;16437;41.836;23.480;2022-09-13T17:53:52;23.10;38.50
29479;DHT22;16437;41.836;23.480;2022-09-13T17:59:20;23.10;38.50
29479;DHT22;16437;41.836;23.480;2022-09-13T18:04:48;23.10;38.30
29479;DHT22;16437;41.836;23.480;2022-09-13T18:10:16;23.10;38.20
29479;DHT22;16437;41.836;23.480;2022-09-13T18:15:43;23.10;38.20
29479;DHT22;16437;41.836;23.480;2022-09-13T18:21:11;23.10;38.20
29479;DHT22;16437;41.836;23.480;2022-09-13T18:26:42;23.00;38.10
29479;DHT22;16437;41.836;23.480;2022-09-13T18:32:08;23.00;38.00
29479;DHT22;16437;41.836;23.480;2022-09-13T18:37:35;23.00;38.00
29479;DHT22;16437;41.836;23.480;2022-09-13T18:43:01;22.90;37.90
29479;DHT22;16437;41.836;23.480;2022-09-13T18:48:42;22.90;37.90
29479;DHT22;16437;41.836;23.480;2022-09-13T18:54:12;22.80;37.90
29479;DHT22;16437;41.836;23.480;2022-09-13T18:59:39;22.80;37.90
29479;DHT22;16437;41.836;23.480;2022-09-13T19:05:06;22.70;37.90
29479;DHT22;16437;41.836;23.480;2022-09-13T19:10:34;22.70;37.90
29479;DHT22;16437;41.836;23.480;2022-09-13T19:16:02;22.70;37.90
29479;DHT22;16437;41.836;23.480;2022-09-13T19:21:30;22.60;37.90
29479;DHT22;16437;41.836;23.480;2022-09-13T19:26:57;22.60;38.00
29479;DHT22;16437;41.836;23.480;2022-09-13T19:32:25;22.60;38.10
29479;DHT22;16437;41.836;23.480;2022-09-13T19:37:52;22.60;38.30
29479;DHT22;16437;41.836;23.480;2022-09-13T19:43:18;22.60;38.60
29479;DHT22;16437;41.836;23.480;2022-09-13T19:48:46;22.70;38.80
29479;DHT22;16437;41.836;23.480;2022-09-13T19:54:14;22.70;39.10
29479;DHT22;16437;41.836;23.480;2022-09-13T19:59:42;22.70;39.40
29479;DHT22;16437;41.836;23.480;2022-09-13T20:05:09;22.70;39.60
29479;DHT22;16437;41.836;23.480;2022-09-13T20:10:36;22.70;39.80
29479;DHT22;16437;41.836;23.480;2022-09-13T20:16:18;22.70;39.90
29479;DHT22;16437;41.836;23.480;2022-09-13T20:21:44;22.70;40.10
29479;DHT22;16437;41.836;23.480;2022-09-13T20:27:12;22.70;40.10
29479;DHT22;16437;41.836;23.480;2022-09-13T20:32:40;22.70;40.20
29479;DHT22;16437;41.836;23.480;2022-09-13T20:38:07;22.70;40.30
29479;DHT22;16437;41.836;23.480;2022-09-13T20:43:34;22.70;40.40
29479;DHT22;16437;41.836;23.480;2022-09-13T20:49:01;22.70;40.40
29479;DHT22;16437;41.836;23.480;2022-09-13T20:54:29;22.70;40.40
29479;DHT22;16437;41.836;23.480;2022-09-13T20:59:56;22.70;40.50
29479;DHT22;16437;41.836;23.480;2022-09-13T21:05:23;22.60;40.50
29479;DHT22;16437;41.836;23.480;2022-09-13T21:11:00;22.60;40.40
29479;DHT22;16437;41.836;23.480;2022-09-13T21:16:29;22.60;40.40
29479;DHT22;16437;41.836;23.480;2022-09-13T21:21:57;22.60;40.20
29479;DHT22;16437;41.836;23.480;2022-09-13T21:27:24;22.60;40.30
29479;DHT22;16437;41.836;23.480;2022-09-13T21:32:50;22.60;40.40
29479;DHT22;16437;41.836;23.480;2022-09-13T21:38:17;22.60;40.50
29479;DHT22;16437;41.836;23.480;2022-09-13T21:43:44;22.60;40.60
29479;DHT22;16437;41.836;23.480;2022-09-13T21:49:12;22.60;40.70
29479;DHT22;16437;41.836;23.480;2022-09-13T21:54:38;22.60;41.00
29479;DHT22;16437;41.836;23.480;2022-09-13T22:00:05;22.60;41.10
29479;DHT22;16437;41.836;23.480;2022-09-13T22:05:34;22.60;41.10
29479;DHT22;16437;41.836;23.480;2022-09-13T22:11:05;22.60;41.10
29479;DHT22;16437;41.836;23.480;2022-09-13T22:16:34;22.60;41.10
29479;DHT22;16437;41.836;23.480;2022-09-13T22:22:01;22.60;41.20
29479;DHT22;16437;41.836;23.480;2022-09-13T22:27:27;22.60;41.30
29479;DHT22;16437;41.836;23.480;2022-09-13T22:32:53;22.60;41.30
29479;DHT22;16437;41.836;23.480;2022-09-13T22:38:20;22.50;41.30
29479;DHT22;16437;41.836;23.480;2022-09-13T22:43:46;22.50;41.40
29479;DHT22;16437;41.836;23.480;2022-09-13T22:49:14;22.40;41.50
29479;DHT22;16437;41.836;23.480;2022-09-13T22:54:41;22.40;41.50
29479;DHT22;16437;41.836;23.480;2022-09-13T23:00:09;22.50;41.60
29479;DHT22;16437;41.836;23.480;2022-09-13T23:05:36;22.40;41.70
29479;DHT22;16437;41.836;23.480;2022-09-13T23:11:15;22.40;41.70
29479;DHT22;16437;41.836;23.480;2022-09-13T23:16:44;22.40;41.80
29479;DHT22;16437;41.836;23.480;2022-09-13T23:22:10;22.40;41.90
29479;DHT22;16437;41.836;23.480;2022-09-13T23:27:37;22.30;42.00
29479;DHT22;16437;41.836;23.480;2022-09-13T23:33:03;22.30;42.00
29479;DHT22;16437;41.836;23.480;2022-09-13T23:38:31;22.30;42.10
29479;DHT22;16437;41.836;23.480;2022-09-13T23:43:58;22.30;42.10
29479;DHT22;16437;41.836;23.480;2022-09-13T23:49:25;22.30;42.10
29479;DHT22;16437;41.836;23.480;2022-09-13T23:54:52;22.20;42.10
